sensor_id;sensor_type;location;lat;lon;timestamp;pressure;altitude;pressure_sealevel;temperature;humidity
45621;BME280;31345;51.522;10.702;2023-10-13T00:02:01;98912.25;;;13.96;100.00
45621;BME280;31345;51.522;10.702;2023-10-13T00:04:34;98910.91;;;14.01;100.00
45621;BME280;31345;51.522;10.702;2023-10-13T00:07:08;98913.34;;;13.93;100.00
45621;BME280;31345;51.522;10.702;2023-10-13T00:09:40;98907.66;;;13.88;100.00
45621;BME280;31345;51.522;10.702;2023-10-13T00:12:14;98909.34;;;13.78;100.00
45621;BME280;31345;51.522;10.702;2023-10-13T00:14:52;98914.25;;;13.82;100.00
45621;BME280;31345;51.522;10.702;2023-10-13T00:17:25;98907.44;;;13.80;100.00
45621;BME280;31345;51.522;10.702;2023-10-13T00:19:58;98905.06;;;13.77;100.00
45621;BME280;31345;51.522;10.702;2023-10-13T00:22:31;98908.09;;;13.60;100.00
45621;BME280;31345;51.522;10.702;2023-10-13T00:25:00;98910.47;;;13.63;100.00
45621;BME280;31345;51.522;10.702;2023-10-13T00:27:34;98900.94;;;13.62;100.00
45621;BME280;31345;51.522;10.702;2023-10-13T00:30:13;98897.34;;;13.63;100.00
45621;BME280;31345;51.522;10.702;2023-10-13T00:32:53;98902.13;;;13.70;100.00
45621;BME280;31345;51.522;10.702;2023-10-13T00:35:21;98901.63;;;13.65;100.00
45621;BME280;31345;51.522;10.702;2023-10-13T00:37:59;98896.13;;;13.68;100.00
45621;BME280;31345;51.522;10.702;2023-10-13T00:40:31;98890.56;;;13.61;100.00
45621;BME280;31345;51.522;10.702;2023-10-13T00:43:14;98891.88;;;13.55;100.00
45621;BME280;31345;51.522;10.702;2023-10-13T00:46:07;98894.59;;;13.54;100.00
45621;BME280;31345;51.522;10.702;2023-10-13T00:48:41;98896.91;;;13.47;100.00
45621;BME280;31345;51.522;10.702;2023-10-13T00:51:12;98899.41;;;13.48;100.00
45621;BME280;31345;51.522;10.702;2023-10-13T00:54:04;98902.16;;;13.47;100.00
45621;BME280;31345;51.522;10.702;2023-10-13T00:56:38;98901.06;;;13.49;100.00
45621;BME280;31345;51.522;10.702;2023-10-13T00:59:18;98903.09;;;13.57;100.00
45621;BME280;31345;51.522;10.702;2023-10-13T01:01:56;98900.34;;;13.59;100.00
45621;BME280;31345;51.522;10.702;2023-10-13T01:04:23;98894.72;;;13.52;100.00
45621;BME280;31345;51.522;10.702;2023-10-13T01:06:59;98894.97;;;13.60;100.00
45621;BME280;31345;51.522;10.702;2023-10-13T01:09:40;98883.97;;;13.55;100.00
45621;BME280;31345;51.522;10.702;2023-10-13T01:15:23;98889.47;;;13.52;100.00
45621;BME280;31345;51.522;10.702;2023-10-13T01:18:07;98881.84;;;13.60;100.00
45621;BME280;31345;51.522;10.702;2023-10-13T01:20:43;98877.56;;;13.48;100.00
45621;BME280;31345;51.522;10.702;2023-10-13T01:23:13;98878.53;;;13.47;100.00
45621;BME280;31345;51.522;10.702;2023-10-13T01:25:45;98877.34;;;13.40;100.00
45621;BME280;31345;51.522;10.702;2023-10-13T01:28:12;98884.00;;;13.44;100.00
45621;BME280;31345;51.522;10.702;2023-10-13T01:30:42;98876.50;;;13.39;100.00
45621;BME280;31345;51.522;10.702;2023-10-13T01:33:14;98879.84;;;13.41;100.00
45621;BME280;31345;51.522;10.702;2023-10-13T01:35:42;98880.22;;;13.36;100.00
45621;BME280;31345;51.522;10.702;2023-10-13T01:38:19;98883.31;;;13.42;100.00
45621;BME280;31345;51.522;10.702;2023-10-13T01:40:52;98884.97;;;13.43;100.00
45621;BME280;31345;51.522;10.702;2023-10-13T01:43:24;98893.06;;;13.51;100.00
45621;BME280;31345;51.522;10.702;2023-10-13T01:45:57;98896.66;;;13.50;100.00
45621;BME280;31345;51.522;10.702;2023-10-13T01:48:29;98898.81;;;13.45;100.00
45621;BME280;31345;51.522;10.702;2023-10-13T01:51:04;98893.91;;;13.52;100.00
45621;BME280;31345;51.522;10.702;2023-10-13T01:53:36;98887.94;;;13.49;100.00
45621;BME280;31345;51.522;10.702;2023-10-13T01:56:05;98886.84;;;13.52;100.00
45621;BME280;31345;51.522;10.702;2023-10-13T01:58:41;98886.72;;;13.54;100.00
45621;BME280;31345;51.522;10.702;2023-10-13T02:01:09;98882.91;;;13.58;100.00
45621;BME280;31345;51.522;10.702;2023-10-13T02:03:41;98878.50;;;13.58;100.00
45621;BME280;31345;51.522;10.702;2023-10-13T02:06:13;98876.47;;;13.62;100.00
45621;BME280;31345;51.522;10.702;2023-10-13T02:08:51;98865.09;;;13.61;100.00
45621;BME280;31345;51.522;10.702;2023-10-13T02:11:28;98855.75;;;13.69;100.00
45621;BME280;31345;51.522;10.702;2023-10-13T02:14:00;98858.88;;;13.74;100.00
45621;BME280;31345;51.522;10.702;2023-10-13T02:16:33;98864.25;;;13.72;100.00
45621;BME280;31345;51.522;10.702;2023-10-13T02:19:05;98859.44;;;13.78;100.00
45621;BME280;31345;51.522;10.702;2023-10-13T02:21:35;98857.44;;;13.70;100.00
45621;BME280;31345;51.522;10.702;2023-10-13T02:24:07;98861.28;;;13.66;100.00
45621;BME280;31345;51.522;10.702;2023-10-13T02:26:45;98858.66;;;13.66;100.00
45621;BME280;31345;51.522;10.702;2023-10-13T02:29:17;98857.22;;;13.61;100.00
45621;BME280;31345;51.522;10.702;2023-10-13T02:31:49;98851.72;;;13.65;100.00
45621;BME280;31345;51.522;10.702;2023-10-13T02:34:26;98856.59;;;13.69;100.00
45621;BME280;31345;51.522;10.702;2023-10-13T02:36:58;98855.06;;;13.67;100.00
45621;BME280;31345;51.522;10.702;2023-10-13T02:39:31;98851.22;;;13.71;100.00
45621;BME280;31345;51.522;10.702;2023-10-13T02:42:02;98843.78;;;13.76;100.00
45621;BME280;31345;51.522;10.702;2023-10-13T02:44:38;98838.22;;;13.69;100.00
45621;BME280;31345;51.522;10.702;2023-10-13T02:47:10;98832.66;;;13.62;100.00
45621;BME280;31345;51.522;10.702;2023-10-13T02:49:45;98829.91;;;13.64;100.00
45621;BME280;31345;51.522;10.702;2023-10-13T02:52:17;98830.03;;;13.62;100.00
45621;BME280;31345;51.522;10.702;2023-10-13T02:54:48;98820.59;;;13.60;100.00
45621;BME280;31345;51.522;10.702;2023-10-13T02:57:22;98816.03;;;13.62;100.00
45621;BME280;31345;51.522;10.702;2023-10-13T02:59:55;98812.72;;;13.60;100.00
45621;BME280;31345;51.522;10.702;2023-10-13T03:02:43;98817.00;;;13.61;100.00
45621;BME280;31345;51.522;10.702;2023-10-13T03:05:12;98820.91;;;13.67;100.00
45621;BME280;31345;51.522;10.702;2023-10-13T03:07:47;98812.78;;;13.70;100.00
45621;BME280;31345;51.522;10.702;2023-10-13T03:10:18;98806.38;;;13.62;100.00
45621;BME280;31345;51.522;10.702;2023-10-13T03:12:52;98811.63;;;13.62;100.00
45621;BME280;31345;51.522;10.702;2023-10-13T03:15:24;98811.38;;;13.66;100.00
45621;BME280;31345;51.522;10.702;2023-10-13T03:18:02;98805.16;;;13.67;100.00
45621;BME280;31345;51.522;10.702;2023-10-13T03:20:38;98796.63;;;13.74;100.00
45621;BME280;31345;51.522;10.702;2023-10-13T03:23:13;98793.94;;;13.65;100.00
45621;BME280;31345;51.522;10.702;2023-10-13T03:25:47;98796.56;;;13.65;100.00
45621;BME280;31345;51.522;10.702;2023-10-13T03:28:17;98804.44;;;13.65;100.00
45621;BME280;31345;51.522;10.702;2023-10-13T03:30:55;98797.09;;;13.58;100.00
45621;BME280;31345;51.522;10.702;2023-10-13T03:33:32;98788.81;;;13.63;100.00
45621;BME280;31345;51.522;10.702;2023-10-13T03:36:00;98791.56;;;13.61;100.00
45621;BME280;31345;51.522;10.702;2023-10-13T03:38:37;98793.00;;;13.66;100.00
45621;BME280;31345;51.522;10.702;2023-10-13T03:41:12;98780.34;;;13.59;100.00
45621;BME280;31345;51.522;10.702;2023-10-13T03:43:46;98780.34;;;13.59;100.00
45621;BME280;31345;51.522;10.702;2023-10-13T03:46:23;98787.88;;;13.64;100.00
45621;BME280;31345;51.522;10.702;2023-10-13T03:48:57;98791.78;;;13.70;100.00
45621;BME280;31345;51.522;10.702;2023-10-13T03:51:32;98789.97;;;13.70;100.00
45621;BME280;31345;51.522;10.702;2023-10-13T03:54:00;98782.06;;;13.70;100.00
45621;BME280;31345;51.522;10.702;2023-10-13T03:56:40;98775.47;;;13.76;100.00
45621;BME280;31345;51.522;10.702;2023-10-13T03:59:13;98776.06;;;13.80;100.00
45621;BME280;31345;51.522;10.702;2023-10-13T04:01:51;98768.31;;;13.78;100.00
45621;BME280;31345;51.522;10.702;2023-10-13T04:04:30;98761.16;;;13.90;100.00
45621;BME280;31345;51.522;10.702;2023-10-13T04:07:13;98765.44;;;13.91;100.00
45621;BME280;31345;51.522;10.702;2023-10-13T04:10:08;98761.22;;;14.00;100.00
45621;BME280;31345;51.522;10.702;2023-10-13T04:13:06;98763.84;;;14.00;100.00
45621;BME280;31345;51.522;10.702;2023-10-13T04:15:57;98753.50;;;14.08;100.00
45621;BME280;31345;51.522;10.702;2023-10-13T04:19:05;98755.75;;;14.13;100.00
45621;BME280;31345;51.522;10.702;2023-10-13T04:21:42;98741.38;;;14.17;100.00
45621;BME280;31345;51.522;10.702;2023-10-13T04:24:28;98740.53;;;14.17;100.00
45621;BME280;31345;51.522;10.702;2023-10-13T04:27:30;98739.16;;;14.22;100.00
45621;BME280;31345;51.522;10.702;2023-10-13T04:30:21;98750.09;;;14.27;100.00
45621;BME280;31345;51.522;10.702;2023-10-13T04:32:58;98741.28;;;14.29;100.00
45621;BME280;31345;51.522;10.702;2023-10-13T04:36:07;98737.25;;;14.24;100.00
45621;BME280;31345;51.522;10.702;2023-10-13T04:38:40;98736.69;;;14.31;100.00
45621;BME280;31345;51.522;10.702;2023-10-13T04:41:28;98745.59;;;14.39;100.00
45621;BME280;31345;51.522;10.702;2023-10-13T04:44:03;98745.88;;;14.46;100.00
45621;BME280;31345;51.522;10.702;2023-10-13T04:46:57;98742.28;;;14.47;100.00
45621;BME280;31345;51.522;10.702;2023-10-13T04:49:44;98745.88;;;14.46;100.00
45621;BME280;31345;51.522;10.702;2023-10-13T04:52:24;98732.31;;;14.41;100.00
45621;BME280;31345;51.522;10.702;2023-10-13T04:55:11;98729.28;;;14.46;100.00
45621;BME280;31345;51.522;10.702;2023-10-13T04:58:08;98733.31;;;14.50;100.00
45621;BME280;31345;51.522;10.702;2023-10-13T05:00:41;98730.94;;;14.47;100.00
45621;BME280;31345;51.522;10.702;2023-10-13T05:03:51;98728.19;;;14.48;100.00
45621;BME280;31345;51.522;10.702;2023-10-13T05:06:34;98716.13;;;14.46;100.00
45621;BME280;31345;51.522;10.702;2023-10-13T05:09:25;98720.81;;;14.52;100.00
45621;BME280;31345;51.522;10.702;2023-10-13T05:12:15;98721.97;;;14.59;100.00
45621;BME280;31345;51.522;10.702;2023-10-13T05:15:05;98718.34;;;14.60;100.00
45621;BME280;31345;51.522;10.702;2023-10-13T05:17:50;98711.56;;;14.58;100.00
45621;BME280;31345;51.522;10.702;2023-10-13T05:20:42;98720.19;;;14.70;100.00
45621;BME280;31345;51.522;10.702;2023-10-13T05:23:26;98722.94;;;14.68;100.00
45621;BME280;31345;51.522;10.702;2023-10-13T05:26:16;98730.53;;;14.71;100.00
45621;BME280;31345;51.522;10.702;2023-10-13T05:29:06;98721.41;;;14.65;100.00
45621;BME280;31345;51.522;10.702;2023-10-13T05:31:50;98709.94;;;14.66;100.00
45621;BME280;31345;51.522;10.702;2023-10-13T05:34:44;98710.72;;;14.67;100.00
45621;BME280;31345;51.522;10.702;2023-10-13T05:37:30;98704.81;;;14.75;100.00
45621;BME280;31345;51.522;10.702;2023-10-13T05:40:24;98705.91;;;14.72;100.00
45621;BME280;31345;51.522;10.702;2023-10-13T05:43:14;98694.00;;;14.78;100.00
45621;BME280;31345;51.522;10.702;2023-10-13T05:46:01;98684.72;;;14.74;100.00
45621;BME280;31345;51.522;10.702;2023-10-13T05:48:48;98690.81;;;14.84;100.00
45621;BME280;31345;51.522;10.702;2023-10-13T05:51:38;98688.75;;;14.78;100.00
45621;BME280;31345;51.522;10.702;2023-10-13T05:54:20;98687.78;;;14.79;100.00
45621;BME280;31345;51.522;10.702;2023-10-13T05:57:10;98684.16;;;14.80;100.00
45621;BME280;31345;51.522;10.702;2023-10-13T05:59:55;98694.97;;;14.87;100.00
45621;BME280;31345;51.522;10.702;2023-10-13T06:02:40;98682.09;;;14.84;100.00
45621;BME280;31345;51.522;10.702;2023-10-13T06:05:21;98684.88;;;14.92;100.00
45621;BME280;31345;51.522;10.702;2023-10-13T06:08:12;98689.97;;;14.94;100.00
45621;BME280;31345;51.522;10.702;2023-10-13T06:11:04;98679.44;;;14.94;100.00
45621;BME280;31345;51.522;10.702;2023-10-13T06:13:53;98685.69;;;15.02;100.00
45621;BME280;31345;51.522;10.702;2023-10-13T06:16:38;98681.16;;;15.04;100.00
45621;BME280;31345;51.522;10.702;2023-10-13T06:19:29;98684.06;;;15.01;100.00
45621;BME280;31345;51.522;10.702;2023-10-13T06:22:14;98686.81;;;15.00;100.00
45621;BME280;31345;51.522;10.702;2023-10-13T06:25:05;98676.81;;;15.03;100.00
45621;BME280;31345;51.522;10.702;2023-10-13T06:27:56;98677.25;;;15.09;100.00
45621;BME280;31345;51.522;10.702;2023-10-13T06:30:42;98681.28;;;15.13;100.00
45621;BME280;31345;51.522;10.702;2023-10-13T06:33:18;98685.16;;;15.19;100.00
45621;BME280;31345;51.522;10.702;2023-10-13T06:35:49;98689.94;;;15.33;100.00
45621;BME280;31345;51.522;10.702;2023-10-13T06:38:23;98691.34;;;15.37;100.00
45621;BME280;31345;51.522;10.702;2023-10-13T06:40:55;98694.66;;;15.49;100.00
45621;BME280;31345;51.522;10.702;2023-10-13T06:43:24;98690.03;;;15.51;100.00
45621;BME280;31345;51.522;10.702;2023-10-13T06:46:00;98684.50;;;15.54;100.00
45621;BME280;31345;51.522;10.702;2023-10-13T06:48:33;98683.22;;;15.68;100.00
45621;BME280;31345;51.522;10.702;2023-10-13T06:51:07;98678.78;;;15.69;100.00
45621;BME280;31345;51.522;10.702;2023-10-13T06:53:49;98676.81;;;15.71;100.00
45621;BME280;31345;51.522;10.702;2023-10-13T06:56:22;98682.28;;;15.88;100.00
45621;BME280;31345;51.522;10.702;2023-10-13T06:59:00;98674.84;;;15.83;100.00
45621;BME280;31345;51.522;10.702;2023-10-13T07:01:35;98672.06;;;15.85;100.00
45621;BME280;31345;51.522;10.702;2023-10-13T07:04:11;98672.81;;;15.95;100.00
45621;BME280;31345;51.522;10.702;2023-10-13T07:06:47;98675.28;;;16.06;100.00
45621;BME280;31345;51.522;10.702;2023-10-13T07:09:21;98669.34;;;16.04;100.00
45621;BME280;31345;51.522;10.702;2023-10-13T07:12:11;98668.91;;;15.99;100.00
45621;BME280;31345;51.522;10.702;2023-10-13T07:14:50;98665.34;;;16.00;100.00
45621;BME280;31345;51.522;10.702;2023-10-13T07:17:31;98663.66;;;15.99;100.00
45621;BME280;31345;51.522;10.702;2023-10-13T07:20:11;98664.19;;;16.03;100.00
45621;BME280;31345;51.522;10.702;2023-10-13T07:22:54;98662.22;;;16.05;100.00
45621;BME280;31345;51.522;10.702;2023-10-13T07:25:29;98662.78;;;16.08;100.00
45621;BME280;31345;51.522;10.702;2023-10-13T07:28:04;98663.31;;;16.12;100.00
45621;BME280;31345;51.522;10.702;2023-10-13T07:30:40;98661.47;;;16.23;100.00
45621;BME280;31345;51.522;10.702;2023-10-13T07:33:21;98666.72;;;16.23;100.00
45621;BME280;31345;51.522;10.702;2023-10-13T07:36:00;98662.41;;;16.21;100.00
45621;BME280;31345;51.522;10.702;2023-10-13T07:38:31;98663.41;;;16.20;100.00
45621;BME280;31345;51.522;10.702;2023-10-13T07:41:04;98667.03;;;16.19;100.00
45621;BME280;31345;51.522;10.702;2023-10-13T07:43:39;98659.34;;;16.26;100.00
45621;BME280;31345;51.522;10.702;2023-10-13T07:46:13;98663.41;;;16.20;100.00
45621;BME280;31345;51.522;10.702;2023-10-13T07:48:47;98650.50;;;16.17;100.00
45621;BME280;31345;51.522;10.702;2023-10-13T07:51:23;98651.31;;;16.28;100.00
45621;BME280;31345;51.522;10.702;2023-10-13T07:53:58;98647.13;;;16.25;100.00
45621;BME280;31345;51.522;10.702;2023-10-13T07:56:38;98644.38;;;16.27;100.00
45621;BME280;31345;51.522;10.702;2023-10-13T07:59:06;98643.34;;;16.38;100.00
45621;BME280;31345;51.522;10.702;2023-10-13T08:01:41;98641.69;;;16.37;100.00
45621;BME280;31345;51.522;10.702;2023-10-13T08:04:09;98647.47;;;16.40;100.00
45621;BME280;31345;51.522;10.702;2023-10-13T08:06:38;98650.81;;;16.42;100.00
45621;BME280;31345;51.522;10.702;2023-10-13T08:09:11;98637.91;;;16.39;100.00
45621;BME280;31345;51.522;10.702;2023-10-13T08:11:53;98639.56;;;16.40;100.00
45621;BME280;31345;51.522;10.702;2023-10-13T08:14:26;98632.47;;;16.41;100.00
45621;BME280;31345;51.522;10.702;2023-10-13T08:16:57;98645.06;;;16.47;100.00
45621;BME280;31345;51.522;10.702;2023-10-13T08:19:31;98639.41;;;16.42;100.00
45621;BME280;31345;51.522;10.702;2023-10-13T08:22:11;98641.06;;;16.43;100.00
45621;BME280;31345;51.522;10.702;2023-10-13T08:24:56;98644.00;;;16.40;100.00
45621;BME280;31345;51.522;10.702;2023-10-13T08:27:41;98638.13;;;16.46;100.00
45621;BME280;31345;51.522;10.702;2023-10-13T08:30:21;98637.47;;;16.44;100.00
45621;BME280;31345;51.522;10.702;2023-10-13T08:32:57;98640.34;;;16.51;100.00
45621;BME280;31345;51.522;10.702;2023-10-13T08:35:30;98638.22;;;16.54;100.00
45621;BME280;31345;51.522;10.702;2023-10-13T08:38:04;98639.19;;;16.53;100.00
45621;BME280;31345;51.522;10.702;2023-10-13T08:40:47;98627.50;;;16.56;100.00
45621;BME280;31345;51.522;10.702;2023-10-13T08:43:32;98629.38;;;16.64;100.00
45621;BME280;31345;51.522;10.702;2023-10-13T08:46:15;98621.94;;;16.59;100.00
45621;BME280;31345;51.522;10.702;2023-10-13T08:49:05;98612.03;;;16.61;100.00
45621;BME280;31345;51.522;10.702;2023-10-13T08:51:50;98617.91;;;16.73;100.00
45621;BME280;31345;51.522;10.702;2023-10-13T08:54:37;98615.22;;;16.65;100.00
45621;BME280;31345;51.522;10.702;2023-10-13T08:57:12;98623.06;;;16.75;100.00
45621;BME280;31345;51.522;10.702;2023-10-13T09:00:00;98618.97;;;16.80;100.00
45621;BME280;31345;51.522;10.702;2023-10-13T09:02:41;98613.91;;;16.87;100.00
45621;BME280;31345;51.522;10.702;2023-10-13T09:05:38;98612.06;;;16.88;100.00
45621;BME280;31345;51.522;10.702;2023-10-13T09:08:24;98610.47;;;16.95;100.00
45621;BME280;31345;51.522;10.702;2023-10-13T09:11:06;98608.59;;;17.05;100.00
45621;BME280;31345;51.522;10.702;2023-10-13T09:13:43;98610.03;;;17.00;100.00
45621;BME280;31345;51.522;10.702;2023-10-13T09:16:15;98604.69;;;17.18;100.00
45621;BME280;31345;51.522;10.702;2023-10-13T09:18:48;98598.41;;;17.19;100.00
45621;BME280;31345;51.522;10.702;2023-10-13T09:21:24;98595.63;;;17.20;100.00
45621;BME280;31345;51.522;10.702;2023-10-13T09:24:14;98569.91;;;17.22;100.00
45621;BME280;31345;51.522;10.702;2023-10-13T09:27:03;98558.16;;;17.17;100.00
45621;BME280;31345;51.522;10.702;2023-10-13T09:29:36;98571.25;;;17.27;100.00
45621;BME280;31345;51.522;10.702;2023-10-13T09:32:10;98570.56;;;17.24;100.00
45621;BME280;31345;51.522;10.702;2023-10-13T09:34:43;98568.09;;;17.31;100.00
45621;BME280;31345;51.522;10.702;2023-10-13T09:37:17;98566.28;;;17.32;100.00
45621;BME280;31345;51.522;10.702;2023-10-13T09:39:52;98571.13;;;17.36;100.00
45621;BME280;31345;51.522;10.702;2023-10-13T09:42:25;98572.13;;;17.44;100.00
45621;BME280;31345;51.522;10.702;2023-10-13T09:44:57;98571.72;;;17.57;100.00
45621;BME280;31345;51.522;10.702;2023-10-13T09:47:35;98565.97;;;17.61;100.00
45621;BME280;31345;51.522;10.702;2023-10-13T09:50:08;98567.78;;;17.69;100.00
45621;BME280;31345;51.522;10.702;2023-10-13T09:52:57;98566.56;;;17.90;100.00
45621;BME280;31345;51.522;10.702;2023-10-13T09:55:33;98559.28;;;17.92;100.00
45621;BME280;31345;51.522;10.702;2023-10-13T09:58:07;98540.28;;;17.97;100.00
45621;BME280;31345;51.522;10.702;2023-10-13T10:00:47;98548.88;;;18.07;100.00
45621;BME280;31345;51.522;10.702;2023-10-13T10:03:27;98543.75;;;18.14;100.00
45621;BME280;31345;51.522;10.702;2023-10-13T10:06:05;98544.59;;;18.31;100.00
45621;BME280;31345;51.522;10.702;2023-10-13T10:08:39;98537.34;;;18.50;100.00
45621;BME280;31345;51.522;10.702;2023-10-13T10:14:51;98513.66;;;18.73;100.00
45621;BME280;31345;51.522;10.702;2023-10-13T10:17:28;98518.25;;;18.96;100.00
45621;BME280;31345;51.522;10.702;2023-10-13T10:20:05;98518.56;;;19.01;100.00
45621;BME280;31345;51.522;10.702;2023-10-13T10:22:56;98521.38;;;19.08;100.00
45621;BME280;31345;51.522;10.702;2023-10-13T10:25:33;98516.56;;;19.12;100.00
45621;BME280;31345;51.522;10.702;2023-10-13T10:28:07;98518.72;;;19.16;100.00
45621;BME280;31345;51.522;10.702;2023-10-13T10:30:37;98504.16;;;19.12;100.00
45621;BME280;31345;51.522;10.702;2023-10-13T10:33:11;98499.38;;;18.99;100.00
45621;BME280;31345;51.522;10.702;2023-10-13T10:35:46;98508.31;;;19.07;100.00
45621;BME280;31345;51.522;10.702;2023-10-13T10:38:19;98512.09;;;19.12;100.00
45621;BME280;31345;51.522;10.702;2023-10-13T10:41:05;98508.88;;;19.25;100.00
45621;BME280;31345;51.522;10.702;2023-10-13T10:43:38;98505.22;;;19.35;100.00
45621;BME280;31345;51.522;10.702;2023-10-13T10:46:17;98504.97;;;19.53;100.00
45621;BME280;31345;51.522;10.702;2023-10-13T10:48:49;98505.59;;;19.63;100.00
45621;BME280;31345;51.522;10.702;2023-10-13T10:51:28;98492.81;;;19.67;100.00
45621;BME280;31345;51.522;10.702;2023-10-13T10:54:03;98486.47;;;19.76;100.00
45621;BME280;31345;51.522;10.702;2023-10-13T10:56:46;98482.81;;;19.77;100.00
45621;BME280;31345;51.522;10.702;2023-10-13T10:59:24;98477.50;;;19.77;100.00
45621;BME280;31345;51.522;10.702;2023-10-13T11:02:00;98470.31;;;19.86;100.00
45621;BME280;31345;51.522;10.702;2023-10-13T11:04:33;98460.31;;;19.97;100.00
45621;BME280;31345;51.522;10.702;2023-10-13T11:07:07;98455.09;;;20.03;100.00
45621;BME280;31345;51.522;10.702;2023-10-13T11:09:39;98454.63;;;20.00;100.00
45621;BME280;31345;51.522;10.702;2023-10-13T11:12:20;98452.88;;;19.92;100.00
45621;BME280;31345;51.522;10.702;2023-10-13T11:15:02;98443.09;;;19.92;100.00
45621;BME280;31345;51.522;10.702;2023-10-13T11:17:36;98447.13;;;19.80;100.00
45621;BME280;31345;51.522;10.702;2023-10-13T11:20:17;98439.91;;;19.74;100.00
45621;BME280;31345;51.522;10.702;2023-10-13T11:22:57;98431.16;;;19.65;100.00
45621;BME280;31345;51.522;10.702;2023-10-13T11:25:32;98428.22;;;19.60;100.00
45621;BME280;31345;51.522;10.702;2023-10-13T11:28:12;98427.41;;;19.59;100.00
45621;BME280;31345;51.522;10.702;2023-10-13T11:30:51;98422.59;;;19.63;100.00
45621;BME280;31345;51.522;10.702;2023-10-13T11:33:26;98423.25;;;19.57;100.00
45621;BME280;31345;51.522;10.702;2023-10-13T11:36:00;98426.25;;;19.53;100.00
45621;BME280;31345;51.522;10.702;2023-10-13T11:38:34;98427.59;;;19.49;100.00
45621;BME280;31345;51.522;10.702;2023-10-13T11:41:09;98418.28;;;19.53;100.00
45621;BME280;31345;51.522;10.702;2023-10-13T11:43:48;98415.47;;;19.55;100.00
45621;BME280;31345;51.522;10.702;2023-10-13T11:46:54;98421.13;;;19.52;100.00
45621;BME280;31345;51.522;10.702;2023-10-13T11:49:48;98406.88;;;19.53;100.00
45621;BME280;31345;51.522;10.702;2023-10-13T11:52:27;98401.91;;;19.50;100.00
45621;BME280;31345;51.522;10.702;2023-10-13T11:55:01;98396.25;;;19.61;100.00
45621;BME280;31345;51.522;10.702;2023-10-13T11:57:34;98388.59;;;19.58;100.00
45621;BME280;31345;51.522;10.702;2023-10-13T12:00:09;98387.94;;;19.64;100.00
45621;BME280;31345;51.522;10.702;2023-10-13T12:02:57;98390.16;;;19.76;100.00
45621;BME280;31345;51.522;10.702;2023-10-13T12:05:47;98386.44;;;19.85;100.00
45621;BME280;31345;51.522;10.702;2023-10-13T12:08:37;98379.78;;;19.89;100.00
45621;BME280;31345;51.522;10.702;2023-10-13T12:11:20;98386.47;;;20.00;100.00
45621;BME280;31345;51.522;10.702;2023-10-13T12:14:10;98388.59;;;20.05;100.00
45621;BME280;31345;51.522;10.702;2023-10-13T12:16:52;98385.28;;;20.03;100.00
45621;BME280;31345;51.522;10.702;2023-10-13T12:19:25;98380.91;;;20.10;100.00
45621;BME280;31345;51.522;10.702;2023-10-13T12:21:59;98372.34;;;20.23;100.00
45621;BME280;31345;51.522;10.702;2023-10-13T12:24:31;98368.66;;;20.24;100.00
45621;BME280;31345;51.522;10.702;2023-10-13T12:27:09;98362.06;;;20.20;100.00
45621;BME280;31345;51.522;10.702;2023-10-13T12:29:51;98360.63;;;20.17;100.00
45621;BME280;31345;51.522;10.702;2023-10-13T12:32:26;98357.03;;;20.25;100.00
45621;BME280;31345;51.522;10.702;2023-10-13T12:34:57;98351.81;;;20.32;100.00
45621;BME280;31345;51.522;10.702;2023-10-13T12:37:32;98352.13;;;20.37;100.00
45621;BME280;31345;51.522;10.702;2023-10-13T12:40:17;98348.75;;;20.58;100.00
45621;BME280;31345;51.522;10.702;2023-10-13T12:43:08;98333.78;;;20.88;100.00
45621;BME280;31345;51.522;10.702;2023-10-13T12:45:53;98326.03;;;21.30;100.00
45621;BME280;31345;51.522;10.702;2023-10-13T12:48:44;98306.63;;;21.51;100.00
45621;BME280;31345;51.522;10.702;2023-10-13T12:51:35;98320.91;;;21.72;100.00
45621;BME280;31345;51.522;10.702;2023-10-13T12:54:22;98306.31;;;21.96;98.73
45621;BME280;31345;51.522;10.702;2023-10-13T12:56:59;98316.25;;;22.09;97.78
45621;BME280;31345;51.522;10.702;2023-10-13T12:59:31;98307.75;;;22.28;96.64
45621;BME280;31345;51.522;10.702;2023-10-13T13:02:04;98307.03;;;22.41;95.13
45621;BME280;31345;51.522;10.702;2023-10-13T13:04:40;98311.78;;;22.45;95.71
45621;BME280;31345;51.522;10.702;2023-10-13T13:07:15;98303.38;;;22.48;92.54
45621;BME280;31345;51.522;10.702;2023-10-13T13:09:47;98308.25;;;22.38;94.11
45621;BME280;31345;51.522;10.702;2023-10-13T13:12:21;98304.13;;;22.35;94.07
45621;BME280;31345;51.522;10.702;2023-10-13T13:14:56;98297.03;;;22.49;93.01
45621;BME280;31345;51.522;10.702;2023-10-13T13:17:28;98297.03;;;22.43;91.72
45621;BME280;31345;51.522;10.702;2023-10-13T13:20:03;98296.00;;;22.44;91.04
45621;BME280;31345;51.522;10.702;2023-10-13T13:22:42;98297.41;;;22.40;91.34
45621;BME280;31345;51.522;10.702;2023-10-13T13:25:15;98296.31;;;22.34;90.92
45621;BME280;31345;51.522;10.702;2023-10-13T13:27:49;98294.25;;;22.36;89.87
45621;BME280;31345;51.522;10.702;2023-10-13T13:30:24;98285.34;;;22.44;90.57
45621;BME280;31345;51.522;10.702;2023-10-13T13:33:05;98269.56;;;22.42;83.66
45621;BME280;31345;51.522;10.702;2023-10-13T13:35:43;98274.81;;;22.29;88.41
45621;BME280;31345;51.522;10.702;2023-10-13T13:38:15;98277.81;;;22.19;90.32
45621;BME280;31345;51.522;10.702;2023-10-13T13:40:53;98274.13;;;22.20;91.79
45621;BME280;31345;51.522;10.702;2023-10-13T13:43:26;98268.31;;;22.03;89.26
45621;BME280;31345;51.522;10.702;2023-10-13T13:46:08;98259.06;;;21.98;92.37